sensor_id;sensor_type;location;lat;lon;timestamp;pressure;altitude;pressure_sealevel;temperature;humidity
27729;BME280;15126;42.186;24.340;2022-08-11T00:01:06;99248.66;;;22.88;67.90
27729;BME280;15126;42.186;24.340;2022-08-11T00:03:41;99238.56;;;22.92;68.00
27729;BME280;15126;42.186;24.340;2022-08-11T00:06:09;99239.84;;;22.64;69.07
27729;BME280;15126;42.186;24.340;2022-08-11T00:08:39;99226.38;;;22.47;68.84
27729;BME280;15126;42.186;24.340;2022-08-11T00:11:08;99246.00;;;22.51;68.73
27729;BME280;15126;42.186;24.340;2022-08-11T00:13:37;99241.34;;;22.53;69.39
27729;BME280;15126;42.186;24.340;2022-08-11T00:16:11;99236.69;;;22.50;69.26
27729;BME280;15126;42.186;24.340;2022-08-11T00:18:41;99231.28;;;22.58;68.80
27729;BME280;15126;42.186;24.340;2022-08-11T00:21:09;99233.59;;;22.48;69.52
27729;BME280;15126;42.186;24.340;2022-08-11T00:23:41;99229.97;;;22.48;69.46
27729;BME280;15126;42.186;24.340;2022-08-11T00:26:11;99233.31;;;22.41;69.43
27729;BME280;15126;42.186;24.340;2022-08-11T00:28:38;99228.66;;;22.32;70.26
27729;BME280;15126;42.186;24.340;2022-08-11T00:31:08;99230.22;;;22.33;70.17
27729;BME280;15126;42.186;24.340;2022-08-11T00:33:38;99237.97;;;22.44;69.93
27729;BME280;15126;42.186;24.340;2022-08-11T00:36:09;99234.91;;;22.47;69.57
27729;BME280;15126;42.186;24.340;2022-08-11T00:38:39;99212.63;;;22.35;69.59
27729;BME280;15126;42.186;24.340;2022-08-11T00:41:19;99240.31;;;22.57;69.88
27729;BME280;15126;42.186;24.340;2022-08-11T00:44:06;99242.69;;;22.64;69.06
27729;BME280;15126;42.186;24.340;2022-08-11T00:46:44;99234.16;;;22.64;69.12
27729;BME280;15126;42.186;24.340;2022-08-11T00:49:23;99240.63;;;22.70;69.77
27729;BME280;15126;42.186;24.340;2022-08-11T00:52:09;99239.28;;;22.48;69.42
27729;BME280;15126;42.186;24.340;2022-08-11T01:01:07;99243.38;;;22.25;70.60
27729;BME280;15126;42.186;24.340;2022-08-11T01:04:03;99246.25;;;22.42;70.17
27729;BME280;15126;42.186;24.340;2022-08-11T01:06:59;99250.88;;;22.39;70.42
27729;BME280;15126;42.186;24.340;2022-08-11T01:09:53;99234.03;;;22.19;70.59
27729;BME280;15126;42.186;24.340;2022-08-11T01:12:31;99236.09;;;22.13;70.70
27729;BME280;15126;42.186;24.340;2022-08-11T01:15:23;99237.66;;;22.14;71.10
27729;BME280;15126;42.186;24.340;2022-08-11T01:18:24;99235.66;;;21.78;72.26
27729;BME280;15126;42.186;24.340;2022-08-11T01:21:07;99231.41;;;22.05;71.40
27729;BME280;15126;42.186;24.340;2022-08-11T01:27:12;99228.00;;;21.89;73.09
27729;BME280;15126;42.186;24.340;2022-08-11T01:33:18;99238.84;;;21.91;73.42
27729;BME280;15126;42.186;24.340;2022-08-11T01:39:44;99220.31;;;22.01;73.73
27729;BME280;15126;42.186;24.340;2022-08-11T01:45:32;99216.41;;;22.04;73.08
27729;BME280;15126;42.186;24.340;2022-08-11T01:48:08;99216.81;;;21.75;73.87
27729;BME280;15126;42.186;24.340;2022-08-11T01:50:52;99215.25;;;21.68;74.16
27729;BME280;15126;42.186;24.340;2022-08-11T01:53:28;99220.88;;;21.63;74.44
27729;BME280;15126;42.186;24.340;2022-08-11T01:56:04;99216.56;;;21.78;73.90
27729;BME280;15126;42.186;24.340;2022-08-11T01:58:42;99208.97;;;21.59;74.36
27729;BME280;15126;42.186;24.340;2022-08-11T02:01:26;99211.31;;;21.60;74.53
27729;BME280;15126;42.186;24.340;2022-08-11T02:04:08;99218.34;;;21.70;74.41
27729;BME280;15126;42.186;24.340;2022-08-11T02:06:43;99216.81;;;21.75;73.81
27729;BME280;15126;42.186;24.340;2022-08-11T02:09:31;99213.69;;;21.67;73.51
27729;BME280;15126;42.186;24.340;2022-08-11T02:12:08;99205.69;;;21.77;73.73
27729;BME280;15126;42.186;24.340;2022-08-11T02:14:40;99210.03;;;21.61;73.05
27729;BME280;15126;42.186;24.340;2022-08-11T02:17:16;99199.25;;;21.71;73.42
27729;BME280;15126;42.186;24.340;2022-08-11T02:19:51;99206.50;;;21.83;72.09
27729;BME280;15126;42.186;24.340;2022-08-11T02:22:46;99206.31;;;21.92;72.04
27729;BME280;15126;42.186;24.340;2022-08-11T02:25:37;99200.09;;;21.88;71.80
27729;BME280;15126;42.186;24.340;2022-08-11T02:28:20;99185.66;;;21.91;71.26
27729;BME280;15126;42.186;24.340;2022-08-11T02:30:59;99193.97;;;22.01;71.12
27729;BME280;15126;42.186;24.340;2022-08-11T02:33:42;99194.44;;;21.93;70.88
27729;BME280;15126;42.186;24.340;2022-08-11T02:36:16;99203.16;;;21.79;71.40
27729;BME280;15126;42.186;24.340;2022-08-11T02:38:51;99191.59;;;21.93;71.07
27729;BME280;15126;42.186;24.340;2022-08-11T02:41:25;99197.84;;;22.03;71.14
27729;BME280;15126;42.186;24.340;2022-08-11T02:44:31;99211.53;;;22.10;70.93
27729;BME280;15126;42.186;24.340;2022-08-11T02:47:06;99198.34;;;22.07;71.28
27729;BME280;15126;42.186;24.340;2022-08-11T02:49:43;99207.91;;;22.10;71.13
27729;BME280;15126;42.186;24.340;2022-08-11T02:52:23;99210.78;;;22.15;72.07
27729;BME280;15126;42.186;24.340;2022-08-11T02:55:02;99200.97;;;22.16;71.83
27729;BME280;15126;42.186;24.340;2022-08-11T02:57:39;99213.63;;;22.21;72.13
27729;BME280;15126;42.186;24.340;2022-08-11T03:00:10;99206.41;;;22.25;71.55
27729;BME280;15126;42.186;24.340;2022-08-11T03:02:45;99207.97;;;22.32;71.36
27729;BME280;15126;42.186;24.340;2022-08-11T03:05:22;99191.69;;;22.21;71.44
27729;BME280;15126;42.186;24.340;2022-08-11T03:08:14;99209.28;;;22.31;71.02
27729;BME280;15126;42.186;24.340;2022-08-11T03:10:50;99185.22;;;22.21;70.11
27729;BME280;15126;42.186;24.340;2022-08-11T03:13:39;99213.41;;;22.35;70.75
27729;BME280;15126;42.186;24.340;2022-08-11T03:16:36;99204.63;;;22.39;70.03
27729;BME280;15126;42.186;24.340;2022-08-11T03:19:17;99196.59;;;22.32;70.58
27729;BME280;15126;42.186;24.340;2022-08-11T03:22:03;99209.00;;;22.40;69.64
27729;BME280;15126;42.186;24.340;2022-08-11T03:24:42;99202.56;;;22.39;71.02
27729;BME280;15126;42.186;24.340;2022-08-11T03:27:26;99210.31;;;22.33;71.19
27729;BME280;15126;42.186;24.340;2022-08-11T03:30:04;99208.25;;;22.39;70.38
27729;BME280;15126;42.186;24.340;2022-08-11T03:32:38;99200.50;;;22.40;71.50
27729;BME280;15126;42.186;24.340;2022-08-11T03:35:08;99210.81;;;22.37;71.50
27729;BME280;15126;42.186;24.340;2022-08-11T03:37:47;99208.75;;;22.32;71.52
27729;BME280;15126;42.186;24.340;2022-08-11T03:40:37;99200.97;;;22.22;71.39
27729;BME280;15126;42.186;24.340;2022-08-11T03:43:40;99203.56;;;22.20;72.11
27729;BME280;15126;42.186;24.340;2022-08-11T03:46:15;99212.34;;;22.22;72.13
27729;BME280;15126;42.186;24.340;2022-08-11T03:48:54;99213.94;;;22.28;72.61
27729;BME280;15126;42.186;24.340;2022-08-11T03:51:28;99215.22;;;22.38;71.91
27729;BME280;15126;42.186;24.340;2022-08-11T03:54:08;99218.88;;;22.44;72.08
27729;BME280;15126;42.186;24.340;2022-08-11T04:03:21;99214.97;;;22.36;73.25
27729;BME280;15126;42.186;24.340;2022-08-11T04:09:22;99220.63;;;22.25;73.07
27729;BME280;15126;42.186;24.340;2022-08-11T04:12:17;99216.50;;;22.37;73.05
27729;BME280;15126;42.186;24.340;2022-08-11T04:15:06;99223.50;;;22.31;72.81
27729;BME280;15126;42.186;24.340;2022-08-11T04:18:22;99220.63;;;22.25;73.48
27729;BME280;15126;42.186;24.340;2022-08-11T04:21:04;99224.78;;;22.41;73.18
27729;BME280;15126;42.186;24.340;2022-08-11T04:30:00;99229.72;;;22.57;72.87
27729;BME280;15126;42.186;24.340;2022-08-11T04:32:54;99234.13;;;22.58;72.74
27729;BME280;15126;42.186;24.340;2022-08-11T04:35:38;99233.84;;;22.62;72.92
27729;BME280;15126;42.186;24.340;2022-08-11T04:38:33;99236.66;;;22.39;73.42
27729;BME280;15126;42.186;24.340;2022-08-11T04:50:56;99235.72;;;22.70;72.76
27729;BME280;15126;42.186;24.340;2022-08-11T04:53:57;99221.50;;;22.70;71.60
27729;BME280;15126;42.186;24.340;2022-08-11T04:56:45;99221.00;;;22.72;71.39
27729;BME280;15126;42.186;24.340;2022-08-11T05:00:00;99225.63;;;22.86;71.25
27729;BME280;15126;42.186;24.340;2022-08-11T05:12:13;99225.31;;;22.56;72.98
27729;BME280;15126;42.186;24.340;2022-08-11T05:14:49;99232.53;;;22.46;73.48
27729;BME280;15126;42.186;24.340;2022-08-11T05:17:38;99223.19;;;22.23;74.30
27729;BME280;15126;42.186;24.340;2022-08-11T05:20:24;99224.81;;;22.58;74.40
27729;BME280;15126;42.186;24.340;2022-08-11T05:23:11;99224.88;;;22.80;73.80
27729;BME280;15126;42.186;24.340;2022-08-11T05:25:58;99224.34;;;22.98;72.66
27729;BME280;15126;42.186;24.340;2022-08-11T05:28:50;99231.28;;;23.30;71.86
27729;BME280;15126;42.186;24.340;2022-08-11T05:31:38;99232.28;;;23.66;70.73
27729;BME280;15126;42.186;24.340;2022-08-11T05:34:26;99215.88;;;23.89;68.92
27729;BME280;15126;42.186;24.340;2022-08-11T05:37:14;99238.59;;;24.11;68.69
27729;BME280;15126;42.186;24.340;2022-08-11T05:39:47;99218.25;;;24.37;68.10
27729;BME280;15126;42.186;24.340;2022-08-11T05:42:33;99229.69;;;24.31;66.66
27729;BME280;15126;42.186;24.340;2022-08-11T05:45:21;99228.91;;;24.66;67.86
27729;BME280;15126;42.186;24.340;2022-08-11T05:48:05;99213.78;;;24.76;65.91
27729;BME280;15126;42.186;24.340;2022-08-11T05:50:56;99219.69;;;25.19;66.51
27729;BME280;15126;42.186;24.340;2022-08-11T05:53:45;99220.16;;;25.53;66.42
27729;BME280;15126;42.186;24.340;2022-08-11T05:56:34;99218.09;;;25.72;63.24
27729;BME280;15126;42.186;24.340;2022-08-11T05:59:11;99215.81;;;25.71;63.37
27729;BME280;15126;42.186;24.340;2022-08-11T06:01:40;99207.00;;;25.87;62.28
27729;BME280;15126;42.186;24.340;2022-08-11T06:04:15;99215.22;;;25.96;62.15
27729;BME280;15126;42.186;24.340;2022-08-11T06:06:53;99212.94;;;26.14;61.39
27729;BME280;15126;42.186;24.340;2022-08-11T06:09:27;99199.00;;;26.04;60.01
27729;BME280;15126;42.186;24.340;2022-08-11T06:11:59;99202.81;;;26.31;60.64
27729;BME280;15126;42.186;24.340;2022-08-11T06:14:27;99203.47;;;26.56;61.29
27729;BME280;15126;42.186;24.340;2022-08-11T06:16:57;99201.78;;;26.66;59.61
27729;BME280;15126;42.186;24.340;2022-08-11T06:19:32;99213.56;;;26.94;57.95
27729;BME280;15126;42.186;24.340;2022-08-11T06:22:02;99203.28;;;27.17;57.37
27729;BME280;15126;42.186;24.340;2022-08-11T06:24:30;99203.03;;;27.15;58.03
27729;BME280;15126;42.186;24.340;2022-08-11T06:27:00;99179.75;;;26.93;56.72
27729;BME280;15126;42.186;24.340;2022-08-11T06:29:30;99202.16;;;27.20;56.93
27729;BME280;15126;42.186;24.340;2022-08-11T06:32:00;99205.75;;;27.53;56.40
27729;BME280;15126;42.186;24.340;2022-08-11T06:34:37;99207.47;;;27.30;54.22
27729;BME280;15126;42.186;24.340;2022-08-11T06:37:15;99203.91;;;27.10;54.98
27729;BME280;15126;42.186;24.340;2022-08-11T06:39:50;99195.16;;;26.90;55.76
27729;BME280;15126;42.186;24.340;2022-08-11T06:42:37;99208.50;;;27.00;55.54
27729;BME280;15126;42.186;24.340;2022-08-11T06:45:17;99199.69;;;26.98;56.40
27729;BME280;15126;42.186;24.340;2022-08-11T06:47:47;99202.50;;;27.30;56.04
27729;BME280;15126;42.186;24.340;2022-08-11T06:50:16;99202.38;;;27.23;55.91
27729;BME280;15126;42.186;24.340;2022-08-11T06:53:03;99203.28;;;27.31;59.37
27729;BME280;15126;42.186;24.340;2022-08-11T06:55:33;99207.16;;;27.72;58.60
27729;BME280;15126;42.186;24.340;2022-08-11T06:58:21;99203.66;;;27.80;53.79
27729;BME280;15126;42.186;24.340;2022-08-11T07:01:11;99203.31;;;28.09;56.16
27729;BME280;15126;42.186;24.340;2022-08-11T07:03:42;99206.69;;;28.34;54.13
27729;BME280;15126;42.186;24.340;2022-08-11T07:06:20;99212.06;;;28.38;52.25
27729;BME280;15126;42.186;24.340;2022-08-11T07:12:25;99207.53;;;28.76;55.27
27729;BME280;15126;42.186;24.340;2022-08-11T07:15:25;99215.28;;;28.68;50.73
27729;BME280;15126;42.186;24.340;2022-08-11T07:18:20;99226.25;;;28.90;50.22
27729;BME280;15126;42.186;24.340;2022-08-11T07:21:09;99219.50;;;28.54;52.84
27729;BME280;15126;42.186;24.340;2022-08-11T07:23:56;99223.00;;;28.73;52.20
27729;BME280;15126;42.186;24.340;2022-08-11T07:26:46;99217.75;;;28.84;49.15
27729;BME280;15126;42.186;24.340;2022-08-11T07:29:32;99207.81;;;29.06;49.22
27729;BME280;15126;42.186;24.340;2022-08-11T07:32:10;99202.44;;;29.23;50.73
27729;BME280;15126;42.186;24.340;2022-08-11T07:34:41;99205.88;;;29.50;51.25
27729;BME280;15126;42.186;24.340;2022-08-11T07:37:12;99211.50;;;29.56;49.20
27729;BME280;15126;42.186;24.340;2022-08-11T07:39:43;99207.28;;;29.85;49.53
27729;BME280;15126;42.186;24.340;2022-08-11T07:42:12;99200.88;;;30.07;50.46
27729;BME280;15126;42.186;24.340;2022-08-11T07:44:41;99191.75;;;30.24;49.41
27729;BME280;15126;42.186;24.340;2022-08-11T07:47:24;99204.88;;;30.40;49.40
27729;BME280;15126;42.186;24.340;2022-08-11T07:50:10;99212.97;;;30.56;47.17
27729;BME280;15126;42.186;24.340;2022-08-11T07:52:55;99212.56;;;30.52;46.53
27729;BME280;15126;42.186;24.340;2022-08-11T07:55:24;99201.50;;;30.79;48.01
27729;BME280;15126;42.186;24.340;2022-08-11T07:57:52;99205.72;;;30.78;46.10
27729;BME280;15126;42.186;24.340;2022-08-11T08:00:39;99192.09;;;30.79;44.71
27729;BME280;15126;42.186;24.340;2022-08-11T08:03:27;99194.25;;;30.93;44.82
27729;BME280;15126;42.186;24.340;2022-08-11T08:06:11;99194.44;;;31.18;44.48
27729;BME280;15126;42.186;24.340;2022-08-11T08:08:55;99188.31;;;31.21;44.83
27729;BME280;15126;42.186;24.340;2022-08-11T08:11:41;99186.41;;;31.09;46.46
27729;BME280;15126;42.186;24.340;2022-08-11T08:14:27;99193.50;;;31.15;45.59
27729;BME280;15126;42.186;24.340;2022-08-11T08:17:12;99179.66;;;31.21;44.33
27729;BME280;15126;42.186;24.340;2022-08-11T08:19:58;99168.69;;;31.28;44.47
27729;BME280;15126;42.186;24.340;2022-08-11T08:22:27;99181.56;;;31.42;43.21
27729;BME280;15126;42.186;24.340;2022-08-11T08:24:54;99177.31;;;31.65;43.63
27729;BME280;15126;42.186;24.340;2022-08-11T08:27:22;99184.75;;;31.83;44.43
27729;BME280;15126;42.186;24.340;2022-08-11T08:29:50;99179.56;;;31.90;45.25
27729;BME280;15126;42.186;24.340;2022-08-11T08:32:37;99173.94;;;32.07;40.27
27729;BME280;15126;42.186;24.340;2022-08-11T08:35:07;99159.38;;;31.82;37.55
27729;BME280;15126;42.186;24.340;2022-08-11T08:37:36;99183.56;;;31.94;38.46
27729;BME280;15126;42.186;24.340;2022-08-11T08:40:06;99183.38;;;31.92;39.65
27729;BME280;15126;42.186;24.340;2022-08-11T08:42:38;99178.94;;;31.99;39.52
27729;BME280;15126;42.186;24.340;2022-08-11T08:45:11;99181.06;;;32.06;39.61
27729;BME280;15126;42.186;24.340;2022-08-11T08:47:42;99179.50;;;32.05;42.61
27729;BME280;15126;42.186;24.340;2022-08-11T08:50:15;99182.56;;;32.14;38.76
27729;BME280;15126;42.186;24.340;2022-08-11T08:52:47;99183.88;;;32.21;41.81
27729;BME280;15126;42.186;24.340;2022-08-11T08:55:17;99179.16;;;32.01;41.10
27729;BME280;15126;42.186;24.340;2022-08-11T08:57:45;99181.63;;;32.12;37.56
27729;BME280;15126;42.186;24.340;2022-08-11T09:00:15;99177.00;;;32.09;42.38
27729;BME280;15126;42.186;24.340;2022-08-11T09:02:42;99181.56;;;32.19;42.33
27729;BME280;15126;42.186;24.340;2022-08-11T09:05:10;99155.66;;;31.97;36.71
27729;BME280;15126;42.186;24.340;2022-08-11T09:07:39;99156.41;;;32.12;38.06
27729;BME280;15126;42.186;24.340;2022-08-11T09:10:08;99169.06;;;32.17;37.59
27729;BME280;15126;42.186;24.340;2022-08-11T09:12:38;99161.03;;;32.08;36.52
27729;BME280;15126;42.186;24.340;2022-08-11T09:15:07;99160.03;;;32.13;39.87
27729;BME280;15126;42.186;24.340;2022-08-11T09:17:39;99156.00;;;32.16;39.51
27729;BME280;15126;42.186;24.340;2022-08-11T09:20:08;99153.66;;;32.22;37.78
27729;BME280;15126;42.186;24.340;2022-08-11T09:22:40;99160.53;;;32.34;37.33
27729;BME280;15126;42.186;24.340;2022-08-11T09:25:27;99151.03;;;32.41;38.71
27729;BME280;15126;42.186;24.340;2022-08-11T09:28:14;99150.41;;;32.50;35.90
27729;BME280;15126;42.186;24.340;2022-08-11T09:30:42;99138.88;;;32.50;37.01
27729;BME280;15126;42.186;24.340;2022-08-11T09:33:12;99133.72;;;32.41;36.85
27729;BME280;15126;42.186;24.340;2022-08-11T09:35:40;99145.81;;;32.47;37.21
27729;BME280;15126;42.186;24.340;2022-08-11T09:38:12;99133.63;;;32.56;40.43
27729;BME280;15126;42.186;24.340;2022-08-11T09:40:57;99139.16;;;32.69;38.22
27729;BME280;15126;42.186;24.340;2022-08-11T09:43:27;99134.25;;;32.79;35.61
27729;BME280;15126;42.186;24.340;2022-08-11T09:46:12;99131.22;;;32.70;38.19
27729;BME280;15126;42.186;24.340;2022-08-11T09:48:42;99137.91;;;32.80;37.89
27729;BME280;15126;42.186;24.340;2022-08-11T09:51:10;99130.19;;;32.82;36.55
27729;BME280;15126;42.186;24.340;2022-08-11T09:53:40;99123.00;;;32.91;36.10
27729;BME280;15126;42.186;24.340;2022-08-11T09:56:11;99121.38;;;32.73;37.35
27729;BME280;15126;42.186;24.340;2022-08-11T09:58:56;99117.44;;;32.85;37.53
27729;BME280;15126;42.186;24.340;2022-08-11T10:01:28;99124.56;;;32.84;38.63
27729;BME280;15126;42.186;24.340;2022-08-11T10:03:59;99116.53;;;32.75;35.69
27729;BME280;15126;42.186;24.340;2022-08-11T10:06:27;99118.16;;;32.93;38.01
27729;BME280;15126;42.186;24.340;2022-08-11T10:09:17;99111.06;;;33.12;36.59
27729;BME280;15126;42.186;24.340;2022-08-11T10:11:46;99108.53;;;33.33;35.55
27729;BME280;15126;42.186;24.340;2022-08-11T10:14:15;99099.41;;;33.19;34.41
27729;BME280;15126;42.186;24.340;2022-08-11T10:17:05;99104.63;;;33.21;37.99
27729;BME280;15126;42.186;24.340;2022-08-11T10:19:33;99103.34;;;33.14;36.39
27729;BME280;15126;42.186;24.340;2022-08-11T10:22:01;99105.91;;;33.27;36.51
27729;BME280;15126;42.186;24.340;2022-08-11T10:24:49;99103.44;;;33.41;38.10
27729;BME280;15126;42.186;24.340;2022-08-11T10:27:35;99110.41;;;33.55;33.71
27729;BME280;15126;42.186;24.340;2022-08-11T10:30:02;99102.41;;;33.46;36.42
27729;BME280;15126;42.186;24.340;2022-08-11T10:33:01;99097.41;;;33.29;35.87
27729;BME280;15126;42.186;24.340;2022-08-11T10:35:47;99089.25;;;32.93;36.18
27729;BME280;15126;42.186;24.340;2022-08-11T10:38:14;99098.44;;;32.50;35.09
27729;BME280;15126;42.186;24.340;2022-08-11T10:40:45;99093.47;;;32.43;37.41
27729;BME280;15126;42.186;24.340;2022-08-11T10:43:36;99074.00;;;32.19;37.44
27729;BME280;15126;42.186;24.340;2022-08-11T10:46:06;99086.63;;;32.31;39.34
27729;BME280;15126;42.186;24.340;2022-08-11T10:49:00;99079.31;;;32.30;37.39
27729;BME280;15126;42.186;24.340;2022-08-11T10:51:29;99076.03;;;32.33;38.25
27729;BME280;15126;42.186;24.340;2022-08-11T10:54:15;99070.69;;;32.55;36.39
27729;BME280;15126;42.186;24.340;2022-08-11T10:57:02;99061.41;;;32.81;35.61
27729;BME280;15126;42.186;24.340;2022-08-11T10:59:46;99071.06;;;33.01;35.10
27729;BME280;15126;42.186;24.340;2022-08-11T11:02:14;99067.94;;;33.06;33.75
27729;BME280;15126;42.186;24.340;2022-08-11T11:04:59;99070.59;;;33.12;36.41
27729;BME280;15126;42.186;24.340;2022-08-11T11:07:35;99057.44;;;33.18;33.27
27729;BME280;15126;42.186;24.340;2022-08-11T11:10:05;99070.41;;;33.27;33.76
27729;BME280;15126;42.186;24.340;2022-08-11T11:12:39;99060.41;;;33.28;33.53
27729;BME280;15126;42.186;24.340;2022-08-11T11:15:28;99060.72;;;33.15;35.35
27729;BME280;15126;42.186;24.340;2022-08-11T11:18:17;99052.31;;;33.09;34.08
27729;BME280;15126;42.186;24.340;2022-08-11T11:20:48;99055.81;;;33.25;33.52
27729;BME280;15126;42.186;24.340;2022-08-11T11:23:19;99056.97;;;33.22;33.02
27729;BME280;15126;42.186;24.340;2022-08-11T11:29:18;99052.66;;;33.30;36.08
27729;BME280;15126;42.186;24.340;2022-08-11T11:32:04;99052.75;;;33.23;35.40
27729;BME280;15126;42.186;24.340;2022-08-11T11:37:32;99036.50;;;33.27;32.91
27729;BME280;15126;42.186;24.340;2022-08-11T11:40:05;99034.22;;;33.26;33.19
27729;BME280;15126;42.186;24.340;2022-08-11T11:42:35;99028.84;;;33.22;34.46
27729;BME280;15126;42.186;24.340;2022-08-11T11:45:05;99020.78;;;33.21;35.07
27729;BME280;15126;42.186;24.340;2022-08-11T11:47:32;99018.19;;;33.42;33.04
27729;BME280;15126;42.186;24.340;2022-08-11T11:50:02;99017.59;;;33.43;34.02
27729;BME280;15126;42.186;24.340;2022-08-11T11:52:29;99021.09;;;33.42;33.38
27729;BME280;15126;42.186;24.340;2022-08-11T11:54:57;99013.44;;;33.20;33.28
27729;BME280;15126;42.186;24.340;2022-08-11T11:57:26;99013.78;;;33.07;33.98
27729;BME280;15126;42.186;24.340;2022-08-11T12:00:12;99005.44;;;32.93;33.39
27729;BME280;15126;42.186;24.340;2022-08-11T12:02:59;99000.22;;;32.92;33.68
27729;BME280;15126;42.186;24.340;2022-08-11T12:05:27;99008.34;;;33.11;35.05
27729;BME280;15126;42.186;24.340;2022-08-11T12:07:57;98994.22;;;33.15;33.66
27729;BME280;15126;42.186;24.340;2022-08-11T12:10:43;99003.50;;;33.13;33.53
27729;BME280;15126;42.186;24.340;2022-08-11T12:13:10;98986.91;;;33.14;34.25
27729;BME280;15126;42.186;24.340;2022-08-11T12:15:57;98999.50;;;33.26;34.58
27729;BME280;15126;42.186;24.340;2022-08-11T12:18:32;98988.03;;;33.18;34.45
27729;BME280;15126;42.186;24.340;2022-08-11T12:21:01;98995.91;;;33.35;34.82
27729;BME280;15126;42.186;24.340;2022-08-11T12:23:28;98989.53;;;33.36;33.13
27729;BME280;15126;42.186;24.340;2022-08-11T12:26:14;98986.75;;;33.29;33.77
27729;BME280;15126;42.186;24.340;2022-08-11T12:29:00;98990.88;;;33.35;34.58
27729;BME280;15126;42.186;24.340;2022-08-11T12:31:31;98989.81;;;33.14;33.37
27729;BME280;15126;42.186;24.340;2022-08-11T12:34:00;99002.56;;;33.28;34.58
27729;BME280;15126;42.186;24.340;2022-08-11T12:36:27;99001.38;;;33.31;32.82
27729;BME280;15126;42.186;24.340;2022-08-11T12:38:55;98982.06;;;33.33;33.54
27729;BME280;15126;42.186;24.340;2022-08-11T12:41:24;98986.06;;;33.21;34.22
27729;BME280;15126;42.186;24.340;2022-08-11T12:44:09;98994.03;;;33.30;32.94
27729;BME280;15126;42.186;24.340;2022-08-11T12:46:57;98997.97;;;33.25;34.19
27729;BME280;15126;42.186;24.340;2022-08-11T12:49:27;98995.41;;;33.12;32.31
27729;BME280;15126;42.186;24.340;2022-08-11T12:52:20;98967.19;;;32.85;33.34
27729;BME280;15126;42.186;24.340;2022-08-11T12:54:52;98990.13;;;33.01;34.48
27729;BME280;15126;42.186;24.340;2022-08-11T12:57:26;98971.22;;;32.99;31.99
27729;BME280;15126;42.186;24.340;2022-08-11T13:00:12;98979.31;;;33.01;33.55
27729;BME280;15126;42.186;24.340;2022-08-11T13:02:58;98954.84;;;32.85;32.71
27729;BME280;15126;42.186;24.340;2022-08-11T13:05:45;98975.91;;;32.95;32.87
27729;BME280;15126;42.186;24.340;2022-08-11T13:08:15;98970.06;;;32.85;33.12
27729;BME280;15126;42.186;24.340;2022-08-11T13:10:43;98966.50;;;32.77;32.29
27729;BME280;15126;42.186;24.340;2022-08-11T13:13:29;98978.97;;;32.80;33.51
27729;BME280;15126;42.186;24.340;2022-08-11T13:15:57;98977.53;;;32.71;32.44
27729;BME280;15126;42.186;24.340;2022-08-11T13:18:26;98979.81;;;32.56;33.17
27729;BME280;15126;42.186;24.340;2022-08-11T13:20:54;98973.00;;;32.36;33.13
27729;BME280;15126;42.186;24.340;2022-08-11T13:23:23;98988.63;;;32.33;33.26
27729;BME280;15126;42.186;24.340;2022-08-11T13:25:51;98989.22;;;32.07;34.39
27729;BME280;15126;42.186;24.340;2022-08-11T13:28:21;98971.03;;;31.89;34.11
27729;BME280;15126;42.186;24.340;2022-08-11T13:30:48;98984.28;;;31.92;33.43
27729;BME280;15126;42.186;24.340;2022-08-11T13:33:35;98995.03;;;31.92;35.75
27729;BME280;15126;42.186;24.340;2022-08-11T13:36:06;98992.00;;;31.90;37.89
27729;BME280;15126;42.186;24.340;2022-08-11T13:38:34;98992.00;;;31.90;41.01
27729;BME280;15126;42.186;24.340;2022-08-11T13:41:02;98977.81;;;31.44;41.41
27729;BME280;15126;42.186;24.340;2022-08-11T13:43:51;98975.66;;;30.90;45.19
27729;BME280;15126;42.186;24.340;2022-08-11T13:46:19;98981.84;;;30.56;46.82
27729;BME280;15126;42.186;24.340;2022-08-11T13:48:51;98964.56;;;30.03;47.71
27729;BME280;15126;42.186;24.340;2022-08-11T13:51:19;98981.34;;;29.69;48.07
27729;BME280;15126;42.186;24.340;2022-08-11T13:53:59;98977.22;;;30.00;46.97
27729;BME280;15126;42.186;24.340;2022-08-11T13:56:27;98976.66;;;30.17;45.00
27729;BME280;15126;42.186;24.340;2022-08-11T13:58:55;98967.63;;;30.28;44.67
27729;BME280;15126;42.186;24.340;2022-08-11T14:01:27;98974.75;;;30.49;44.25
27729;BME280;15126;42.186;24.340;2022-08-11T14:04:02;98976.88;;;30.41;44.93
27729;BME280;15126;42.186;24.340;2022-08-11T14:06:31;98966.88;;;30.50;45.12
27729;BME280;15126;42.186;24.340;2022-08-11T14:08:59;98972.63;;;30.65;43.59
27729;BME280;15126;42.186;24.340;2022-08-11T14:11:28;98968.19;;;30.79;43.63
27729;BME280;15126;42.186;24.340;2022-08-11T14:14:20;98969.31;;;30.91;42.63
27729;BME280;15126;42.186;24.340;2022-08-11T14:16:49;98968.56;;;30.98;40.52
27729;BME280;15126;42.186;24.340;2022-08-11T14:19:21;98976.56;;;31.15;43.39
27729;BME280;15126;42.186;24.340;2022-08-11T14:21:50;98959.69;;;31.04;43.13
27729;BME280;15126;42.186;24.340;2022-08-11T14:24:34;98982.13;;;31.13;43.84
27729;BME280;15126;42.186;24.340;2022-08-11T14:27:03;98964.09;;;31.05;44.49
27729;BME280;15126;42.186;24.340;2022-08-11T14:29:31;98974.88;;;30.97;44.61
27729;BME280;15126;42.186;24.340;2022-08-11T14:32:04;98971.25;;;30.81;46.02
27729;BME280;15126;42.186;24.340;2022-08-11T14:34:34;98996.22;;;30.79;45.49
27729;BME280;15126;42.186;24.340;2022-08-11T14:37:05;98995.84;;;30.75;46.27
27729;BME280;15126;42.186;24.340;2022-08-11T14:39:34;98998.94;;;30.39;45.90
27729;BME280;15126;42.186;24.340;2022-08-11T14:42:05;99008.34;;;30.39;47.44
27729;BME280;15126;42.186;24.340;2022-08-11T14:44:51;99012.13;;;30.04;51.13
27729;BME280;15126;42.186;24.340;2022-08-11T14:47:46;99010.03;;;29.46;54.78
27729;BME280;15126;42.186;24.340;2022-08-11T14:50:18;99025.22;;;29.62;56.34